Time;durP1;ratioP1;P1;durP2;ratioP2;P2;SDS_P1;SDS_P2;PMS_P1;PMS_P2;Temp;Humidity;BMP_temperature;BMP_pressure;BME280_temperature;BME280_humidity;BME280_pressure;Samples;Min_cycle;Max_cycle;Signal;HPM_P1;HPM_P2
2022/05/21 00:00:38;;;;;;;13.55;5.10;;;13.00;99.90;;;;;;5036501;28;20459;-74
2022/05/21 00:03:05;;;;;;;8.07;4.65;;;13.00;99.90;;;;;;5037737;28;20380;-74
2022/05/21 00:05:33;;;;;;;8.18;4.35;;;13.10;99.90;;;;;;5037586;28;20037;-74
2022/05/21 00:07:59;;;;;;;7.38;3.55;;;13.00;99.90;;;;;;5035806;28;20021;-75
2022/05/21 00:10:27;;;;;;;6.57;3.67;;;13.00;99.90;;;;;;5035433;28;20120;-75
2022/05/21 00:12:53;;;;;;;6.68;4.25;;;13.10;99.90;;;;;;5035373;28;20031;-75
2022/05/21 00:15:22;;;;;;;10.23;4.18;;;13.10;99.90;;;;;;5035729;28;20053;-74
2022/05/21 00:17:48;;;;;;;6.47;3.80;;;13.50;99.90;;;;;;5037303;28;20026;-75
2022/05/21 00:23:07;;;;;;;10.02;3.92;;;12.90;99.90;;;;;;5038009;28;20029;-75
2022/05/21 00:25:32;;;;;;;10.45;4.70;;;13.00;99.90;;;;;;5037135;28;20477;-75
2022/05/21 00:27:58;;;;;;;10.35;3.83;;;12.90;99.90;;;;;;5038075;28;20025;-74
2022/05/21 00:30:23;;;;;;;7.28;3.75;;;12.90;99.90;;;;;;5036845;28;20474;-74
2022/05/21 00:32:49;;;;;;;11.98;4.47;;;12.90;99.90;;;;;;5037765;28;20088;-74
2022/05/21 00:35:15;;;;;;;9.25;3.70;;;12.90;99.90;;;;;;5037904;28;20423;-74
2022/05/21 00:37:40;;;;;;;8.73;3.85;;;12.90;99.90;;;;;;5037686;28;20473;-74
2022/05/21 00:40:06;;;;;;;6.03;3.45;;;13.00;99.90;;;;;;5038134;28;20559;-74
2022/05/21 00:42:32;;;;;;;13.23;3.28;;;13.00;99.90;;;;;;5037443;28;20397;-74
2022/05/21 00:44:57;;;;;;;12.27;3.42;;;13.00;99.90;;;;;;5037231;28;20064;-74
2022/05/21 00:47:23;;;;;;;8.68;3.63;;;13.00;99.90;;;;;;5037639;28;20067;-74
2022/05/21 00:49:48;;;;;;;12.60;3.60;;;13.00;99.90;;;;;;5037872;28;20022;-74
2022/05/21 00:52:22;;;;;;;10.85;3.10;;;13.10;99.90;;;;;;5038119;28;20056;-75
2022/05/21 00:55:04;;;;;;;13.07;3.03;;;13.10;99.90;;;;;;5035075;28;20465;-74
2022/05/21 00:57:37;;;;;;;7.07;2.63;;;13.10;99.90;;;;;;5037125;28;20017;-74
2022/05/21 01:00:16;;;;;;;8.27;2.85;;;13.10;99.90;;;;;;5036997;28;20079;-75
2022/05/21 01:02:52;;;;;;;11.23;3.47;;;13.10;99.90;;;;;;5037308;28;20028;-74
2022/05/21 01:05:21;;;;;;;6.05;2.45;;;13.20;99.90;;;;;;5036942;28;20388;-74
2022/05/21 01:07:50;;;;;;;5.70;2.85;;;13.20;99.90;;;;;;5035846;28;20025;-74
2022/05/21 01:10:20;;;;;;;4.72;2.42;;;13.20;99.90;;;;;;5037305;28;20040;-74
2022/05/21 01:12:52;;;;;;;11.48;3.60;;;13.20;99.90;;;;;;5037640;28;20041;-74
2022/05/21 01:15:21;;;;;;;11.02;3.08;;;13.30;99.90;;;;;;5036472;28;20081;-74
2022/05/21 01:17:47;;;;;;;9.02;2.70;;;13.30;99.90;;;;;;5036125;28;20578;-74
2022/05/21 01:20:18;;;;;;;13.48;2.80;;;13.50;99.90;;;;;;5036053;28;20117;-74
2022/05/21 01:22:46;;;;;;;8.07;2.83;;;13.20;99.90;;;;;;5036278;28;20044;-74
2022/05/21 01:25:14;;;;;;;7.75;3.97;;;13.20;99.90;;;;;;5034923;28;20459;-75
2022/05/21 01:27:40;;;;;;;8.43;3.17;;;13.20;99.90;;;;;;5036001;28;20024;-74
2022/05/21 01:30:10;;;;;;;11.63;3.60;;;13.20;99.90;;;;;;5034499;28;20041;-74
2022/05/21 01:32:36;;;;;;;15.15;3.22;;;13.30;99.90;;;;;;5036025;28;20052;-75
2022/05/21 01:35:02;;;;;;;6.20;2.88;;;13.30;99.90;;;;;;5036695;28;20026;-74
2022/05/21 01:37:29;;;;;;;13.00;4.05;;;13.30;99.90;;;;;;5037083;28;20365;-74
2022/05/21 01:39:54;;;;;;;11.02;4.00;;;15.90;99.90;;;;;;5034261;28;20022;-73
2022/05/21 01:42:20;;;;;;;7.68;3.45;;;13.30;99.90;;;;;;5034510;28;20033;-74
2022/05/21 01:44:52;;;;;;;15.40;3.90;;;13.30;99.90;;;;;;5035663;28;20137;-74
2022/05/21 01:47:18;;;;;;;14.20;3.47;;;13.30;99.90;;;;;;5034753;28;20088;-74
2022/05/21 01:49:44;;;;;;;10.95;3.78;;;13.40;99.90;;;;;;5035033;28;20108;-74
2022/05/21 01:52:11;;;;;;;13.90;5.18;;;13.40;99.90;;;;;;5035131;28;20061;-75
2022/05/21 01:54:36;;;;;;;10.85;3.45;;;13.40;99.90;;;;;;5036046;28;20044;-74
2022/05/21 01:57:04;;;;;;;7.90;2.78;;;13.40;99.90;;;;;;5035461;28;20097;-73
2022/05/21 01:59:30;;;;;;;8.02;2.83;;;13.40;99.90;;;;;;5035466;28;20068;-73
2022/05/21 02:01:55;;;;;;;7.90;2.67;;;13.40;99.90;;;;;;5035487;28;20022;-73
2022/05/21 02:04:22;;;;;;;12.38;3.63;;;13.60;99.90;;;;;;5033688;28;20052;-73
2022/05/21 02:06:48;;;;;;;17.10;2.92;;;13.40;99.90;;;;;;5035389;28;20025;-73
2022/05/21 02:09:15;;;;;;;10.77;2.38;;;13.50;99.90;;;;;;5035099;28;20388;-73
2022/05/21 02:11:40;;;;;;;8.55;2.85;;;13.40;99.90;;;;;;5035814;28;20040;-73
2022/05/21 02:14:08;;;;;;;11.77;2.60;;;13.50;99.90;;;;;;5033595;28;20025;-73
2022/05/21 02:16:34;;;;;;;8.77;2.78;;;13.80;99.90;;;;;;5035303;28;20021;-73
2022/05/21 02:19:03;;;;;;;17.40;3.20;;;13.40;99.90;;;;;;5034312;28;20515;-74
2022/05/21 02:21:30;;;;;;;9.15;2.35;;;13.40;99.90;;;;;;5033717;28;20112;-74
2022/05/21 02:23:55;;;;;;;10.95;2.33;;;13.40;99.90;;;;;;5035380;28;20538;-73
2022/05/21 02:26:21;;;;;;;10.98;2.60;;;13.30;99.90;;;;;;5034074;28;20022;-74
2022/05/21 02:28:47;;;;;;;11.55;2.22;;;13.30;99.90;;;;;;5034995;28;20040;-74
2022/05/21 02:31:13;;;;;;;7.22;1.52;;;13.40;99.90;;;;;;5033639;28;20030;-74
2022/05/21 02:33:43;;;;;;;8.68;1.92;;;13.40;99.90;;;;;;5035692;28;20542;-74
2022/05/21 02:36:09;;;;;;;8.65;2.08;;;13.30;99.90;;;;;;5035049;28;20104;-74
2022/05/21 02:41:19;;;;;;;10.18;2.00;;;13.40;99.90;;;;;;5035169;28;20057;-74
2022/05/21 02:43:46;;;;;;;9.35;1.20;;;13.40;99.90;;;;;;5034547;28;20057;-74
2022/05/21 02:46:13;;;;;;;11.85;1.85;;;13.50;99.90;;;;;;5035568;28;20028;-74
2022/05/21 02:48:39;;;;;;;12.82;2.03;;;13.50;99.90;;;;;;5036677;28;20033;-74
2022/05/21 02:51:06;;;;;;;15.80;2.13;;;13.80;99.90;;;;;;5036359;28;20151;-74
2022/05/21 02:53:31;;;;;;;11.13;0.82;;;13.50;99.90;;;;;;5036611;28;20175;-74
2022/05/21 02:56:06;;;;;;;15.57;0.88;;;13.70;99.90;;;;;;5036755;28;20492;-74
2022/05/21 02:58:32;;;;;;;14.70;0.73;;;13.50;99.90;;;;;;5034225;28;20037;-74
2022/05/21 03:00:58;;;;;;;10.95;1.17;;;13.50;99.90;;;;;;5035361;28;20100;-74
2022/05/21 03:03:24;;;;;;;13.77;0.75;;;13.60;99.90;;;;;;5035073;28;20017;-74
2022/05/21 03:05:50;;;;;;;12.82;0.65;;;13.50;99.90;;;;;;5035330;28;20075;-74
2022/05/21 03:11:00;;;;;;;8.63;1.27;;;13.50;99.90;;;;;;5034167;28;20041;-74
2022/05/21 03:13:26;;;;;;;7.97;0.30;;;14.00;99.90;;;;;;5032018;28;20029;-73
2022/05/21 03:15:52;;;;;;;10.27;0.65;;;13.50;99.90;;;;;;5032822;28;20100;-74
2022/05/21 03:18:20;;;;;;;12.13;1.65;;;13.30;99.90;;;;;;5033130;28;20029;-75
2022/05/21 03:20:45;;;;;;;8.93;1.10;;;13.30;99.90;;;;;;5032117;28;20551;-76
2022/05/21 03:23:12;;;;;;;11.05;0.20;;;13.20;99.90;;;;;;5033605;28;20049;-75
2022/05/21 03:25:39;;;;;;;7.97;0.60;;;13.20;99.90;;;;;;5033004;28;20025;-75
2022/05/21 03:28:06;;;;;;;8.00;0.47;;;13.10;99.90;;;;;;5033134;28;20100;-74
2022/05/21 03:30:33;;;;;;;12.55;0.85;;;13.10;99.90;;;;;;5033266;28;20573;-75
2022/05/21 03:32:59;;;;;;;7.43;0.57;;;13.10;99.90;;;;;;5031811;28;20028;-74
2022/05/21 03:35:25;;;;;;;9.30;1.02;;;13.00;99.90;;;;;;5033588;28;20029;-75
2022/05/21 03:37:52;;;;;;;10.75;0.40;;;13.10;99.90;;;;;;5033506;28;20071;-75
2022/05/21 03:40:23;;;;;;;8.32;0.57;;;13.00;99.90;;;;;;5033379;28;20499;-75
2022/05/21 03:42:49;;;;;;;7.35;1.10;;;12.90;99.90;;;;;;5031942;28;20111;-75
2022/05/21 03:45:15;;;;;;;11.63;0.85;;;13.00;99.90;;;;;;5032002;28;20057;-74
2022/05/21 03:47:42;;;;;;;15.05;1.00;;;12.80;99.90;;;;;;5033309;28;20480;-74
2022/05/21 03:50:10;;;;;;;8.82;0.65;;;12.80;99.90;;;;;;5033148;28;20021;-75
2022/05/21 03:52:35;;;;;;;12.47;0.83;;;12.80;99.90;;;;;;5033547;28;20427;-75
2022/05/21 03:55:02;;;;;;;11.10;1.23;;;12.80;99.90;;;;;;5032919;28;20023;-75
2022/05/21 03:57:27;;;;;;;15.50;0.57;;;12.80;99.90;;;;;;5033027;28;20034;-75
2022/05/21 03:59:53;;;;;;;14.68;1.02;;;12.80;99.90;;;;;;5033028;28;20032;-75
2022/05/21 04:02:18;;;;;;;5.35;0.45;;;12.80;99.90;;;;;;5033228;28;20040;-75
2022/05/21 04:04:44;;;;;;;9.82;0.98;;;12.80;99.90;;;;;;5033605;28;20030;-75
2022/05/21 04:07:10;;;;;;;10.13;0.80;;;12.80;99.90;;;;;;5032986;28;20021;-75
2022/05/21 04:09:35;;;;;;;8.35;1.95;;;12.80;99.90;;;;;;5032688;28;20075;-74
2022/05/21 04:12:03;;;;;;;6.03;0.22;;;12.80;99.90;;;;;;5032887;28;20030;-74
2022/05/21 04:14:29;;;;;;;9.18;0.65;;;12.80;99.90;;;;;;5031426;28;20511;-74
2022/05/21 04:17:00;;;;;;;14.30;0.90;;;13.10;99.90;;;;;;5031471;28;20028;-74
2022/05/21 04:19:26;;;;;;;17.75;1.67;;;12.80;99.90;;;;;;5033249;28;20030;-74
2022/05/21 04:21:53;;;;;;;6.60;0.50;;;12.80;99.90;;;;;;5032765;28;20026;-74
2022/05/21 04:24:18;;;;;;;11.50;1.17;;;12.70;99.90;;;;;;5033396;28;20026;-74
2022/05/21 04:26:45;;;;;;;6.72;0.47;;;12.80;99.90;;;;;;5033076;28;20076;-74
2022/05/21 04:29:12;;;;;;;6.72;1.20;;;12.80;99.90;;;;;;5034536;28;20028;-74
2022/05/21 04:31:37;;;;;;;13.00;0.77;;;12.80;99.90;;;;;;5036163;28;20061;-74
2022/05/21 04:34:03;;;;;;;6.78;0.10;;;12.80;99.90;;;;;;5036043;28;20063;-74
2022/05/21 04:36:32;;;;;;;10.88;0.60;;;12.80;99.90;;;;;;5036319;28;20453;-74
2022/05/21 04:38:58;;;;;;;11.48;1.17;;;12.80;99.90;;;;;;5036284;28;20484;-74
2022/05/21 04:41:25;;;;;;;3.45;0.20;;;12.70;99.90;;;;;;5034983;28;20068;-74
2022/05/21 04:43:52;;;;;;;10.00;0.70;;;12.70;99.90;;;;;;5034886;28;20113;-74
2022/05/21 04:46:18;;;;;;;6.25;0.35;;;12.70;99.90;;;;;;5036405;28;20072;-74
2022/05/21 04:48:45;;;;;;;8.88;1.02;;;12.80;99.90;;;;;;5035838;28;20538;-74
2022/05/21 04:51:10;;;;;;;7.90;0.30;;;12.70;99.90;;;;;;5036154;28;20528;-75
2022/05/21 04:53:36;;;;;;;3.17;0.10;;;12.70;99.90;;;;;;5036127;28;20067;-74
2022/05/21 04:56:03;;;;;;;7.95;0.15;;;12.70;99.90;;;;;;5034891;28;20090;-75
2022/05/21 04:58:29;;;;;;;5.53;0.73;;;12.80;99.90;;;;;;5036227;28;20047;-74
2022/05/21 05:00:55;;;;;;;3.83;0.25;;;12.80;99.90;;;;;;5035757;28;20030;-75
2022/05/21 05:03:21;;;;;;;14.07;1.30;;;12.90;99.90;;;;;;5035645;28;20045;-74
2022/05/21 05:05:47;;;;;;;9.80;0.30;;;13.00;99.90;;;;;;5036220;28;20060;-74
2022/05/21 05:08:16;;;;;;;5.60;0.60;;;13.00;99.90;;;;;;5035703;28;20057;-73
2022/05/21 05:10:42;;;;;;;13.90;1.88;;;13.00;99.90;;;;;;5035646;28;20111;-74
2022/05/21 05:13:08;;;;;;;14.18;1.00;;;13.10;99.90;;;;;;5035476;28;20021;-73
2022/05/21 05:15:34;;;;;;;5.65;0.20;;;13.10;99.90;;;;;;5035615;28;20029;-74
2022/05/21 05:18:06;;;;;;;9.02;0.98;;;13.20;99.90;;;;;;5035380;28;20025;-74
2022/05/21 05:20:32;;;;;;;4.18;0.10;;;13.30;99.90;;;;;;5035484;28;20029;-74
2022/05/21 05:22:58;;;;;;;6.07;0.22;;;13.30;99.90;;;;;;5035725;28;20024;-75
2022/05/21 05:25:24;;;;;;;4.97;0.10;;;13.30;99.90;;;;;;5034059;28;20014;-73
2022/05/21 05:27:50;;;;;;;10.30;0.20;;;13.40;99.90;;;;;;5035414;28;20033;-75
2022/05/21 05:30:18;;;;;;;10.23;0.82;;;13.40;99.90;;;;;;5035276;28;20381;-74
2022/05/21 05:32:44;;;;;;;13.80;0.50;;;13.60;99.90;;;;;;5034816;28;20033;-75
2022/05/21 05:35:11;;;;;;;6.05;0.22;;;13.50;99.90;;;;;;5033881;28;20036;-76
2022/05/21 05:37:37;;;;;;;13.77;1.00;;;13.60;99.90;;;;;;5035088;28;20383;-75
2022/05/21 05:40:04;;;;;;;8.70;0.52;;;13.70;99.90;;;;;;5033240;28;20017;-75
2022/05/21 05:42:29;;;;;;;6.45;0.38;;;13.70;99.90;;;;;;5034931;28;20025;-75
2022/05/21 05:44:55;;;;;;;6.18;0.85;;;13.80;99.90;;;;;;5033398;28;20503;-75
2022/05/21 05:47:21;;;;;;;13.05;0.57;;;13.90;99.90;;;;;;5034889;28;20029;-75
2022/05/21 05:49:46;;;;;;;8.27;0.55;;;14.00;99.90;;;;;;5034898;28;20053;-75
2022/05/21 05:52:12;;;;;;;9.43;0.63;;;13.90;99.90;;;;;;5034136;28;20388;-75
2022/05/21 05:54:38;;;;;;;6.90;0.73;;;14.00;99.90;;;;;;5033228;28;20029;-75
2022/05/21 05:57:09;;;;;;;22.35;1.25;;;14.00;99.90;;;;;;5034954;28;20021;-75
2022/05/21 05:59:51;;;;;;;6.80;0.40;;;14.00;99.90;;;;;;5033200;28;20148;-75
2022/05/21 06:05:09;;;;;;;7.38;0.43;;;14.20;99.90;;;;;;5035144;28;20447;-75
2022/05/21 06:07:50;;;;;;;7.80;0.20;;;14.30;99.90;;;;;;5034327;28;20074;-75
2022/05/21 06:10:26;;;;;;;16.17;1.88;;;14.30;99.90;;;;;;5033222;28;20088;-75
2022/05/21 06:12:51;;;;;;;12.73;0.98;;;14.40;99.90;;;;;;5033026;28;20032;-75
2022/05/21 06:15:17;;;;;;;14.18;0.40;;;14.40;99.90;;;;;;5033439;28;20033;-75
2022/05/21 06:17:43;;;;;;;8.45;0.80;;;14.50;99.90;;;;;;5034212;28;20104;-74
2022/05/21 06:20:14;;;;;;;6.88;0.43;;;14.60;99.90;;;;;;5034283;28;20022;-75
2022/05/21 06:22:41;;;;;;;7.75;0.52;;;14.70;99.90;;;;;;5032752;28;20026;-74
2022/05/21 06:25:07;;;;;;;10.13;0.85;;;14.80;99.90;;;;;;5032841;28;20044;-75
2022/05/21 06:27:33;;;;;;;6.72;0.47;;;14.80;99.90;;;;;;5034003;28;20134;-74
2022/05/21 06:30:00;;;;;;;10.15;1.30;;;14.90;99.90;;;;;;5050372;23;20040;-91
2022/05/21 06:32:55;;;;;;;9.02;0.95;;;15.00;99.90;;;;;;5057649;28;20056;-90
2022/05/21 06:35:46;;;;;;;7.60;0.73;;;14.90;99.90;;;;;;5055548;28;20025;-90
2022/05/21 06:42:36;;;;;;;9.95;0.85;;;15.10;99.90;;;;;;5055905;28;20048;-89
2022/05/21 06:55:30;;;;;;;6.22;0.85;;;15.40;99.90;;;;;;5055931;28;20498;-89
2022/05/21 06:57:55;;;;;;;9.50;0.88;;;13.60;99.90;;;;;;5037876;28;20053;-91
2022/05/21 07:00:22;;;;;;;8.82;0.63;;;15.50;99.90;;;;;;5053944;28;20468;-90
2022/05/21 07:02:50;;;;;;;13.20;1.38;;;15.50;99.90;;;;;;5055801;28;20025;-91
2022/05/21 07:08:13;;;;;;;5.78;0.40;;;15.70;99.90;;;;;;5057067;28;20036;-91
2022/05/21 07:10:39;;;;;;;6.70;0.10;;;15.90;99.90;;;;;;5056246;28;20049;-89
2022/05/21 07:13:05;;;;;;;10.57;1.17;;;17.20;99.90;;;;;;5055361;28;20032;-90
2022/05/21 07:15:33;;;;;;;7.85;0.68;;;16.00;99.90;;;;;;5061869;28;20029;-90
2022/05/21 07:18:01;;;;;;;4.80;0.52;;;17.90;99.90;;;;;;5072567;28;20047;-89
2022/05/21 07:20:27;;;;;;;4.35;0.60;;;17.40;99.90;;;;;;5063913;28;20089;-89
2022/05/21 07:22:57;;;;;;;8.98;0.63;;;16.90;99.90;;;;;;5061622;28;20460;-90
2022/05/21 07:25:30;;;;;;;7.00;0.30;;;16.70;99.90;;;;;;5055979;28;20021;-89
2022/05/21 07:27:56;;;;;;;6.15;1.08;;;16.30;99.90;;;;;;5067109;28;20021;-89
2022/05/21 07:30:22;;;;;;;9.80;0.30;;;16.40;99.90;;;;;;5063097;28;20445;-90
2022/05/21 07:32:50;;;;;;;6.82;0.68;;;16.60;99.90;;;;;;5061290;28;20032;-90
2022/05/21 07:35:18;;;;;;;9.65;0.47;;;17.20;99.90;;;;;;5064208;28;20013;-89
2022/05/21 07:37:45;;;;;;;9.98;0.52;;;19.10;99.90;;;;;;5077881;28;20033;-89
2022/05/21 07:40:12;;;;;;;8.85;1.40;;;16.90;99.90;;;;;;5076323;28;20029;-89
2022/05/21 07:42:38;;;;;;;5.72;0.35;;;16.90;99.90;;;;;;5075847;28;20179;-89
2022/05/21 07:45:05;;;;;;;5.13;0.30;;;18.00;99.90;;;;;;5073490;28;20025;-90
2022/05/21 07:47:31;;;;;;;11.88;0.20;;;17.10;99.90;;;;;;5065435;28;20029;-89
2022/05/21 07:49:57;;;;;;;5.97;0.30;;;17.10;99.90;;;;;;5055314;28;20037;-90
2022/05/21 07:52:24;;;;;;;6.35;1.13;;;19.20;99.90;;;;;;5052536;28;20058;-89
2022/05/21 07:54:50;;;;;;;8.43;0.65;;;17.00;99.90;;;;;;5053975;28;20121;-90
2022/05/21 07:57:16;;;;;;;14.07;0.38;;;17.40;99.90;;;;;;5053539;28;20048;-90
2022/05/21 07:59:42;;;;;;;11.77;0.82;;;15.00;99.90;;;;;;5054475;28;20471;-90
2022/05/21 08:02:15;;;;;;;10.98;0.73;;;17.10;99.90;;;;;;5054647;28;20490;-90
2022/05/21 08:04:45;;;;;;;6.78;0.43;;;17.00;99.90;;;;;;5059763;28;20464;-90
2022/05/21 08:07:11;;;;;;;3.70;0.32;;;16.70;99.90;;;;;;5057159;28;20028;-90
2022/05/21 08:09:38;;;;;;;10.75;0.47;;;16.60;99.90;;;;;;5056960;28;20021;-90
2022/05/21 08:12:08;;;;;;;4.10;0.73;;;16.70;99.90;;;;;;5058219;28;20310;-89
2022/05/21 08:14:35;;;;;;;9.23;0.73;;;16.40;99.90;;;;;;5057928;28;20052;-88
2022/05/21 08:17:00;;;;;;;8.25;0.68;;;17.90;99.90;;;;;;5059632;28;20422;-90
2022/05/21 08:19:27;;;;;;;10.80;0.85;;;18.30;99.90;;;;;;5056434;28;20078;-90
2022/05/21 08:21:53;;;;;;;8.05;0.88;;;19.70;99.90;;;;;;5056990;28;20487;-89
2022/05/21 08:27:03;;;;;;;6.93;0.40;;;17.00;99.90;;;;;;5057942;28;20043;-90
2022/05/21 08:29:36;;;;;;;2.90;0.43;;;17.30;99.90;;;;;;5058949;28;20041;-89
2022/05/21 08:32:05;;;;;;;8.77;0.40;;;17.50;99.90;;;;;;5058325;28;20028;-89
2022/05/21 08:34:42;;;;;;;;;;;14.90;99.90;;;;;;5059541;28;20425;-89
2022/05/21 08:37:07;;;;;;;7.63;0.57;;;17.40;99.90;;;;;;5059263;28;20282;-89
2022/05/21 08:39:38;;;;;;;5.75;0.30;;;17.70;99.90;;;;;;5059600;28;20013;-89
2022/05/21 08:42:29;;;;;;;9.52;0.60;;;17.10;99.90;;;;;;5058107;28;20067;-89
2022/05/21 08:45:15;;;;;;;5.25;0.82;;;17.10;99.90;;;;;;5056617;28;20506;-89
2022/05/21 08:47:41;;;;;;;7.32;0.22;;;17.10;99.90;;;;;;5056531;28;20051;-89
2022/05/21 08:50:14;;;;;;;8.38;0.93;;;17.50;99.90;;;;;;5057552;28;20021;-89
2022/05/21 08:53:06;;;;;;;7.38;0.98;;;17.40;99.90;;;;;;5058156;28;20048;-89
2022/05/21 08:55:39;;;;;;;4.03;0.30;;;17.30;99.90;;;;;;5057198;28;20053;-89
2022/05/21 08:58:10;;;;;;;4.90;0.20;;;17.30;99.90;;;;;;5055819;28;20017;-89
2022/05/21 09:00:43;;;;;;;7.82;0.30;;;17.40;99.90;;;;;;5058261;28;20025;-89
2022/05/21 09:03:15;;;;;;;4.90;0.45;;;18.70;99.90;;;;;;5057062;28;20031;-89
2022/05/21 09:06:04;;;;;;;5.93;0.68;;;17.30;99.90;;;;;;5056558;28;20036;-89
2022/05/21 09:08:39;;;;;;;8.93;1.08;;;16.30;99.90;;;;;;5055602;28;20422;-89
2022/05/21 09:11:13;;;;;;;5.72;0.30;;;17.90;99.90;;;;;;5057271;28;20021;-89
2022/05/21 09:13:46;;;;;;;6.20;0.30;;;17.30;99.90;;;;;;5056202;28;20040;-89
2022/05/21 09:18:58;;;;;;;6.88;0.55;;;18.00;99.90;;;;;;5058356;28;20059;-89
2022/05/21 09:21:50;;;;;;;5.60;0.73;;;19.20;99.90;;;;;;5055885;28;20484;-89
2022/05/21 09:24:34;;;;;;;5.90;0.30;;;18.20;99.90;;;;;;5060163;28;20112;-89
2022/05/21 09:27:01;;;;;;;11.07;1.00;;;18.20;99.90;;;;;;5058466;28;20475;-89
2022/05/21 09:29:33;;;;;;;7.07;0.13;;;20.20;99.90;;;;;;5058078;28;20037;-89
2022/05/21 09:32:15;;;;;;;4.13;0.65;;;17.20;99.90;;;;;;5058589;28;20044;-90
2022/05/21 09:34:41;;;;;;;3.50;0.10;;;17.70;99.90;;;;;;5059561;28;20041;-90
2022/05/21 09:37:16;;;;;;;11.43;1.02;;;17.30;99.90;;;;;;5062096;28;20033;-90
2022/05/21 09:39:43;;;;;;;6.03;0.30;;;17.60;99.90;;;;;;5071217;28;20498;-89
2022/05/21 09:45:21;;;;;;;3.83;0.22;;;15.70;99.90;;;;;;5069921;28;20029;-89
2022/05/21 09:45:23;;;;;;;5.70;0.10;;;17.50;99.90;;;;;;5066447;28;20032;-90
2022/05/21 09:47:53;;;;;;;8.52;0.47;;;20.70;99.90;;;;;;5079337;28;20084;-88
2022/05/21 09:50:32;;;;;;;6.10;0.05;;;18.40;99.90;;;;;;5079539;28;20040;-89
2022/05/21 09:53:00;;;;;;;8.43;0.77;;;18.10;99.90;;;;;;5079857;28;20411;-89
2022/05/21 09:55:29;;;;;;;4.90;0.65;;;18.20;99.90;;;;;;5077064;28;20009;-89
2022/05/21 09:58:08;;;;;;;4.30;0.00;;;21.10;99.90;;;;;;5071794;28;20029;-90
2022/05/21 10:00:37;;;;;;;6.00;0.30;;;18.20;99.90;;;;;;5064167;28;20064;-90
2022/05/21 10:03:09;;;;;;;6.90;0.00;;;18.50;99.90;;;;;;5059842;28;20116;-90
2022/05/21 10:05:37;;;;;;;4.35;0.28;;;14.80;99.90;;;;;;5058550;28;20033;-89
2022/05/21 10:11:24;;;;;;;5.30;0.30;;;20.80;99.90;;;;;;5061878;28;20116;-89
2022/05/21 10:14:01;;;;;;;7.03;0.77;;;21.80;99.90;;;;;;5057373;28;20475;-90
2022/05/21 10:16:37;;;;;;;9.40;0.70;;;18.60;99.90;;;;;;5057426;28;20123;-90
2022/05/21 10:19:25;;;;;;;6.40;0.25;;;18.70;99.90;;;;;;5058683;28;20036;-90
2022/05/21 10:22:05;;;;;;;4.90;0.30;;;22.50;99.90;;;;;;5056699;28;20029;-89
2022/05/21 10:24:52;;;;;;;8.35;0.43;;;19.20;99.90;;;;;;5056743;28;20032;-89
2022/05/21 10:27:39;;;;;;;7.15;0.20;;;19.00;99.90;;;;;;5059828;28;20032;-90
2022/05/21 10:30:19;;;;;;;8.18;0.38;;;19.00;99.90;;;;;;5056283;28;20044;-89
2022/05/21 10:33:06;;;;;;;4.90;0.10;;;19.00;99.90;;;;;;5055500;28;20029;-90
2022/05/21 10:35:41;;;;;;;7.80;0.38;;;18.90;99.90;;;;;;5057307;28;20064;-89
2022/05/21 10:38:20;;;;;;;7.45;0.65;;;19.00;99.90;;;;;;5055940;28;20021;-89
2022/05/21 10:40:59;;;;;;;;;;;18.80;99.90;;;;;;5055471;28;20029;-89
2022/05/21 10:43:49;;;;;;;7.47;0.82;;;18.70;99.90;;;;;;5056713;28;19905;-89
2022/05/21 10:46:40;;;;;;;6.72;0.55;;;18.60;99.90;;;;;;5055648;28;20025;-90
2022/05/21 10:49:36;;;;;;;3.20;0.10;;;17.20;99.90;;;;;;5055437;28;20041;-90
2022/05/21 10:52:15;;;;;;;4.82;0.70;;;18.40;99.90;;;;;;5055903;28;20037;-90
2022/05/21 10:54:56;;;;;;;;;;;18.60;99.90;;;;;;5055705;28;20021;-90
2022/05/21 10:57:48;;;;;;;5.13;0.47;;;18.70;99.90;;;;;;5055148;28;19911;-90
2022/05/21 11:00:50;;;;;;;6.80;0.10;;;16.90;99.90;;;;;;5055810;28;20028;-90
2022/05/21 11:03:34;;;;;;;6.63;0.95;;;19.20;99.90;;;;;;5053614;28;20171;-89
2022/05/21 11:06:03;;;;;;;6.95;1.17;;;19.10;99.90;;;;;;5061758;28;20025;-90
2022/05/21 11:08:47;;;;;;;;;;;19.00;99.90;;;;;;5074099;28;20028;-89
2022/05/21 11:11:47;;;;;;;5.95;0.30;;;19.00;99.90;;;;;;5074173;28;19936;-89
2022/05/21 11:14:23;;;;;;;7.68;0.47;;;20.00;99.90;;;;;;5076062;28;20027;-90
2022/05/21 11:17:24;;;;;;;6.20;0.35;;;19.50;99.90;;;;;;5076005;28;20093;-90
2022/05/21 11:20:16;;;;;;;3.67;0.32;;;20.50;99.90;;;;;;5074698;28;20021;-91
2022/05/21 11:23:16;;;;;;;6.05;0.85;;;19.90;99.90;;;;;;5058148;28;20037;-90
2022/05/21 11:26:29;;;;;;;2.20;0.20;;;20.40;99.90;;;;;;5055272;28;20047;-90
2022/05/21 11:29:31;;;;;;;5.47;0.88;;;20.30;99.90;;;;;;5052070;28;20035;-90
2022/05/21 11:37:55;;;;;;;8.63;0.50;;;20.30;99.90;;;;;;5058982;28;20545;-90
2022/05/21 11:43:55;;;;;;;4.47;0.63;;;20.80;99.90;;;;;;5062249;28;20036;-92
2022/05/21 11:46:49;;;;;;;6.22;0.60;;;20.60;96.10;;;;;;5062973;28;20379;-91
2022/05/21 11:49:27;;;;;;;9.13;0.73;;;21.50;99.90;;;;;;5061847;28;20033;-91
2022/05/21 11:52:28;;;;;;;2.63;0.15;;;20.40;97.80;;;;;;5064377;28;20025;-91
2022/05/21 11:54:53;;;;;;;2.67;0.32;;;20.70;99.50;;;;;;5081084;28;20025;-89
2022/05/21 11:57:48;;;;;;;7.93;0.65;;;22.30;98.80;;;;;;5080962;28;20013;-91
2022/05/21 12:00:17;;;;;;;5.13;0.38;;;20.30;96.90;;;;;;5079214;28;20009;-91
2022/05/21 12:03:06;;;;;;;3.80;0.22;;;21.60;99.90;;;;;;5077887;28;20012;-90
2022/05/21 12:05:34;;;;;;;8.05;0.68;;;20.10;99.90;;;;;;5048732;28;20036;-91
2022/05/21 12:08:29;;;;;;;7.43;0.68;;;20.40;99.90;;;;;;5059049;28;20033;-90
2022/05/21 12:11:07;;;;;;;7.35;0.75;;;20.00;99.90;;;;;;5061011;28;20033;-90
2022/05/21 12:13:39;;;;;;;4.47;0.15;;;20.20;99.90;;;;;;5058379;28;20021;-91
2022/05/21 12:16:20;;;;;;;8.30;0.43;;;17.40;96.10;;;;;;5057749;28;20422;-91
2022/05/21 12:18:55;;;;;;;6.10;0.90;;;20.50;96.90;;;;;;5057781;28;20033;-90
2022/05/21 12:21:44;;;;;;;5.30;0.45;;;19.80;99.90;;;;;;5057819;28;20025;-90
2022/05/21 12:24:36;;;;;;;5.43;0.38;;;19.10;99.90;;;;;;5056451;28;20025;-91
2022/05/21 12:27:21;;;;;;;3.35;0.45;;;19.20;99.90;;;;;;5058202;28;20410;-91
2022/05/21 12:30:15;;;;;;;3.45;0.30;;;20.30;99.90;;;;;;5058286;28;20032;-91
2022/05/21 12:32:42;;;;;;;3.83;0.30;;;20.10;99.90;;;;;;5053560;28;20033;-90
2022/05/21 12:35:25;;;;;;;6.93;0.57;;;19.90;99.90;;;;;;5057362;28;20491;-91
2022/05/21 12:38:15;;;;;;;6.88;0.10;;;19.40;99.90;;;;;;5056827;28;20031;-90
2022/05/21 12:41:21;;;;;;;10.18;0.40;;;19.10;99.90;;;;;;5056448;28;20021;-90
2022/05/21 12:43:49;;;;;;;6.35;0.30;;;19.30;99.90;;;;;;5058414;28;20064;-90
2022/05/21 12:46:32;;;;;;;5.20;0.33;;;19.60;99.90;;;;;;5058082;28;20388;-90
2022/05/21 12:49:04;;;;;;;7.05;0.52;;;19.60;99.60;;;;;;5056660;28;20032;-90
2022/05/21 12:51:48;;;;;;;5.30;0.10;;;17.20;99.90;;;;;;5059081;28;20484;-91
2022/05/21 12:54:24;;;;;;;3.72;0.20;;;19.20;99.90;;;;;;5056436;28;20119;-90
2022/05/21 12:56:56;;;;;;;5.05;0.47;;;18.80;99.90;;;;;;5058440;28;20028;-91
2022/05/21 12:59:32;;;;;;;5.22;0.55;;;17.20;99.90;;;;;;5059579;28;20100;-91
2022/05/21 13:02:04;;;;;;;2.45;0.52;;;20.30;99.90;;;;;;5058251;28;20081;-91
2022/05/21 13:04:55;;;;;;;2.83;0.13;;;20.80;99.10;;;;;;5060898;28;20036;-92
2022/05/21 13:07:48;;;;;;;6.53;0.60;;;20.90;97.20;;;;;;5057850;28;20052;-92
2022/05/21 13:10:20;;;;;;;5.28;0.40;;;22.90;95.90;;;;;;5056996;28;20104;-90
2022/05/21 13:13:00;;;;;;;2.28;0.00;;;25.20;92.40;;;;;;5057410;28;20391;-90
2022/05/21 13:15:30;;;;;;;1.77;0.15;;;21.70;95.70;;;;;;5060214;28;20025;-90
2022/05/21 13:18:00;;;;;;;3.88;0.10;;;20.80;97.70;;;;;;5057510;28;20029;-91
2022/05/21 13:20:59;;;;;;;3.65;0.30;;;21.40;91.70;;;;;;5073313;28;20385;-91
2022/05/21 13:23:50;;;;;;;4.30;0.20;;;20.70;90.90;;;;;;5067581;28;20048;-90
2022/05/21 13:26:38;;;;;;;7.70;0.10;;;20.70;96.20;;;;;;5051803;28;20045;-90
2022/05/21 13:29:28;;;;;;;2.72;0.30;;;22.30;95.40;;;;;;5089205;28;20055;-91
2022/05/21 13:31:55;;;;;;;7.80;0.85;;;19.30;95.00;;;;;;5068415;28;20037;-91
2022/05/21 13:34:27;;;;;;;5.30;0.00;;;21.00;92.60;;;;;;5066087;28;20025;-91
2022/05/21 13:36:59;;;;;;;7.03;0.10;;;21.10;94.00;;;;;;5055646;28;20029;-90
2022/05/21 13:39:29;;;;;;;7.55;1.02;;;20.80;93.90;;;;;;5056322;28;20025;-89
2022/05/21 13:42:19;;;;;;;3.38;0.32;;;20.90;96.70;;;;;;5056169;28;20033;-91
2022/05/21 13:44:48;;;;;;;4.95;0.20;;;21.00;95.90;;;;;;5055163;28;20040;-91
2022/05/21 13:47:20;;;;;;;5.30;1.00;;;21.10;94.80;;;;;;5056836;28;20017;-91
2022/05/21 13:49:53;;;;;;;6.38;1.20;;;21.20;95.80;;;;;;5077687;28;20021;-90
2022/05/21 13:52:24;;;;;;;4.28;0.38;;;21.10;95.60;;;;;;5080058;28;20013;-90
2022/05/21 13:54:52;;;;;;;8.73;0.50;;;19.50;94.30;;;;;;5079391;28;20036;-90
2022/05/21 13:57:23;;;;;;;;;;;20.90;95.20;;;;;;5080169;28;20021;-91